sensor_id;sensor_type;location;lat;lon;timestamp;P1;P2;P0
76421;PMS5003;65254;52.354;13.614;2022-11-27T00:00:00;11;10;
76421;PMS5003;65254;52.354;13.614;2022-11-27T00:04:00;11;10;
76421;PMS5003;65254;52.354;13.614;2022-11-27T00:08:00;10;9;
76421;PMS5003;65254;52.354;13.614;2022-11-27T00:12:00;10;9;
76421;PMS5003;65254;52.354;13.614;2022-11-27T00:16:00;11;10;
76421;PMS5003;65254;52.354;13.614;2022-11-27T00:20:00;10;9;
76421;PMS5003;65254;52.354;13.614;2022-11-27T00:24:03;11;10;
76421;PMS5003;65254;52.354;13.614;2022-11-27T00:28:00;11;10;
76421;PMS5003;65254;52.354;13.614;2022-11-27T00:32:00;11;10;
76421;PMS5003;65254;52.354;13.614;2022-11-27T00:36:00;11;10;
76421;PMS5003;65254;52.354;13.614;2022-11-27T00:40:00;11;10;
76421;PMS5003;65254;52.354;13.614;2022-11-27T00:44:00;11;10;
76421;PMS5003;65254;52.354;13.614;2022-11-27T00:48:00;12;11;
76421;PMS5003;65254;52.354;13.614;2022-11-27T00:52:00;11;10;
76421;PMS5003;65254;52.354;13.614;2022-11-27T00:56:00;11;10;
76421;PMS5003;65254;52.354;13.614;2022-11-27T01:00:00;12;11;
76421;PMS5003;65254;52.354;13.614;2022-11-27T01:04:03;11;10;
76421;PMS5003;65254;52.354;13.614;2022-11-27T01:08:00;12;11;
76421;PMS5003;65254;52.354;13.614;2022-11-27T01:12:00;11;10;
76421;PMS5003;65254;52.354;13.614;2022-11-27T01:16:02;11;10;
76421;PMS5003;65254;52.354;13.614;2022-11-27T01:20:00;11;10;
76421;PMS5003;65254;52.354;13.614;2022-11-27T01:24:01;12;11;
76421;PMS5003;65254;52.354;13.614;2022-11-27T01:28:00;13;12;
76421;PMS5003;65254;52.354;13.614;2022-11-27T01:32:00;11;10;
76421;PMS5003;65254;52.354;13.614;2022-11-27T01:36:02;13;12;
76421;PMS5003;65254;52.354;13.614;2022-11-27T01:40:00;11;10;
76421;PMS5003;65254;52.354;13.614;2022-11-27T01:44:02;12;11;
76421;PMS5003;65254;52.354;13.614;2022-11-27T01:48:02;14;13;
76421;PMS5003;65254;52.354;13.614;2022-11-27T01:52:02;12;11;
76421;PMS5003;65254;52.354;13.614;2022-11-27T01:56:00;13;12;
76421;PMS5003;65254;52.354;13.614;2022-11-27T02:00:00;14;12;
76421;PMS5003;65254;52.354;13.614;2022-11-27T02:04:00;13;12;
76421;PMS5003;65254;52.354;13.614;2022-11-27T02:08:04;13;12;
76421;PMS5003;65254;52.354;13.614;2022-11-27T02:12:04;14;12;
76421;PMS5003;65254;52.354;13.614;2022-11-27T02:16:08;12;11;
76421;PMS5003;65254;52.354;13.614;2022-11-27T02:20:14;13;12;
76421;PMS5003;65254;52.354;13.614;2022-11-27T02:28:17;12;11;
76421;PMS5003;65254;52.354;13.614;2022-11-27T02:32:04;12;11;
76421;PMS5003;65254;52.354;13.614;2022-11-27T02:36:05;12;11;
76421;PMS5003;65254;52.354;13.614;2022-11-27T02:40:02;13;12;
76421;PMS5003;65254;52.354;13.614;2022-11-27T02:44:01;13;12;
76421;PMS5003;65254;52.354;13.614;2022-11-27T02:48:01;12;11;
76421;PMS5003;65254;52.354;13.614;2022-11-27T02:52:00;13;12;
76421;PMS5003;65254;52.354;13.614;2022-11-27T02:56:02;13;12;
76421;PMS5003;65254;52.354;13.614;2022-11-27T03:00:00;13;12;
76421;PMS5003;65254;52.354;13.614;2022-11-27T03:04:01;13;12;
76421;PMS5003;65254;52.354;13.614;2022-11-27T03:08:03;12;11;
76421;PMS5003;65254;52.354;13.614;2022-11-27T03:12:00;12;11;
76421;PMS5003;65254;52.354;13.614;2022-11-27T03:16:06;12;11;
76421;PMS5003;65254;52.354;13.614;2022-11-27T03:20:05;12;11;
76421;PMS5003;65254;52.354;13.614;2022-11-27T03:24:00;13;12;
76421;PMS5003;65254;52.354;13.614;2022-11-27T03:28:02;12;11;
76421;PMS5003;65254;52.354;13.614;2022-11-27T03:32:00;12;11;
76421;PMS5003;65254;52.354;13.614;2022-11-27T03:36:00;12;11;
76421;PMS5003;65254;52.354;13.614;2022-11-27T03:40:00;12;11;
76421;PMS5003;65254;52.354;13.614;2022-11-27T03:44:05;12;11;
76421;PMS5003;65254;52.354;13.614;2022-11-27T03:48:08;12;11;
76421;PMS5003;65254;52.354;13.614;2022-11-27T03:52:06;11;10;
76421;PMS5003;65254;52.354;13.614;2022-11-27T03:56:07;12;11;
76421;PMS5003;65254;52.354;13.614;2022-11-27T04:00:05;13;12;
76421;PMS5003;65254;52.354;13.614;2022-11-27T04:04:00;12;11;
76421;PMS5003;65254;52.354;13.614;2022-11-27T04:08:00;11;10;
76421;PMS5003;65254;52.354;13.614;2022-11-27T04:12:00;12;11;
76421;PMS5003;65254;52.354;13.614;2022-11-27T04:16:00;11;10;
76421;PMS5003;65254;52.354;13.614;2022-11-27T04:20:00;11;10;
76421;PMS5003;65254;52.354;13.614;2022-11-27T04:24:00;12;11;
76421;PMS5003;65254;52.354;13.614;2022-11-27T04:28:00;12;11;
76421;PMS5003;65254;52.354;13.614;2022-11-27T04:32:00;12;11;
76421;PMS5003;65254;52.354;13.614;2022-11-27T04:36:00;12;11;
76421;PMS5003;65254;52.354;13.614;2022-11-27T04:40:00;12;11;
76421;PMS5003;65254;52.354;13.614;2022-11-27T04:44:00;12;11;
76421;PMS5003;65254;52.354;13.614;2022-11-27T04:48:00;13;12;
76421;PMS5003;65254;52.354;13.614;2022-11-27T04:52:00;13;12;
76421;PMS5003;65254;52.354;13.614;2022-11-27T04:56:00;12;11;
76421;PMS5003;65254;52.354;13.614;2022-11-27T05:00:00;10;9;
76421;PMS5003;65254;52.354;13.614;2022-11-27T05:04:00;12;11;
76421;PMS5003;65254;52.354;13.614;2022-11-27T05:08:00;12;11;
76421;PMS5003;65254;52.354;13.614;2022-11-27T05:12:00;11;10;
76421;PMS5003;65254;52.354;13.614;2022-11-27T05:16:00;11;10;
76421;PMS5003;65254;52.354;13.614;2022-11-27T05:20:00;12;11;
76421;PMS5003;65254;52.354;13.614;2022-11-27T05:24:00;13;12;
76421;PMS5003;65254;52.354;13.614;2022-11-27T05:28:00;12;11;
76421;PMS5003;65254;52.354;13.614;2022-11-27T05:32:00;12;11;
76421;PMS5003;65254;52.354;13.614;2022-11-27T05:36:00;11;10;
76421;PMS5003;65254;52.354;13.614;2022-11-27T05:40:00;12;11;
76421;PMS5003;65254;52.354;13.614;2022-11-27T05:44:00;12;11;
76421;PMS5003;65254;52.354;13.614;2022-11-27T05:48:00;12;11;
76421;PMS5003;65254;52.354;13.614;2022-11-27T05:52:00;13;12;
76421;PMS5003;65254;52.354;13.614;2022-11-27T05:56:01;13;12;
76421;PMS5003;65254;52.354;13.614;2022-11-27T06:00:00;19;17;
76421;PMS5003;65254;52.354;13.614;2022-11-27T06:04:00;18;16;
76421;PMS5003;65254;52.354;13.614;2022-11-27T06:08:00;14;13;
76421;PMS5003;65254;52.354;13.614;2022-11-27T06:12:00;12;11;
76421;PMS5003;65254;52.354;13.614;2022-11-27T06:16:04;13;12;
76421;PMS5003;65254;52.354;13.614;2022-11-27T06:20:00;12;11;
76421;PMS5003;65254;52.354;13.614;2022-11-27T06:24:00;14;13;
76421;PMS5003;65254;52.354;13.614;2022-11-27T06:28:00;12;11;
76421;PMS5003;65254;52.354;13.614;2022-11-27T06:32:00;11;10;
76421;PMS5003;65254;52.354;13.614;2022-11-27T06:36:00;12;11;
76421;PMS5003;65254;52.354;13.614;2022-11-27T06:40:00;12;11;
76421;PMS5003;65254;52.354;13.614;2022-11-27T06:44:00;14;13;
76421;PMS5003;65254;52.354;13.614;2022-11-27T06:48:00;14;13;
76421;PMS5003;65254;52.354;13.614;2022-11-27T06:52:00;13;12;
76421;PMS5003;65254;52.354;13.614;2022-11-27T06:56:01;13;12;
76421;PMS5003;65254;52.354;13.614;2022-11-27T07:00:00;11;10;
76421;PMS5003;65254;52.354;13.614;2022-11-27T07:04:00;14;13;
76421;PMS5003;65254;52.354;13.614;2022-11-27T07:08:00;14;13;
76421;PMS5003;65254;52.354;13.614;2022-11-27T07:12:00;13;12;
76421;PMS5003;65254;52.354;13.614;2022-11-27T07:16:01;14;13;
76421;PMS5003;65254;52.354;13.614;2022-11-27T07:20:00;14;13;
76421;PMS5003;65254;52.354;13.614;2022-11-27T07:24:00;17;15;
76421;PMS5003;65254;52.354;13.614;2022-11-27T07:28:00;14;13;
76421;PMS5003;65254;52.354;13.614;2022-11-27T07:32:00;15;14;
76421;PMS5003;65254;52.354;13.614;2022-11-27T07:36:02;14;13;
76421;PMS5003;65254;52.354;13.614;2022-11-27T07:40:04;17;15;
76421;PMS5003;65254;52.354;13.614;2022-11-27T07:44:00;18;16;
76421;PMS5003;65254;52.354;13.614;2022-11-27T07:48:00;18;16;
76421;PMS5003;65254;52.354;13.614;2022-11-27T07:52:00;17;15;
76421;PMS5003;65254;52.354;13.614;2022-11-27T07:56:00;22;20;
76421;PMS5003;65254;52.354;13.614;2022-11-27T08:00:00;24;22;
76421;PMS5003;65254;52.354;13.614;2022-11-27T08:04:00;19;17;
76421;PMS5003;65254;52.354;13.614;2022-11-27T08:08:01;22;20;
76421;PMS5003;65254;52.354;13.614;2022-11-27T08:12:00;19;17;
76421;PMS5003;65254;52.354;13.614;2022-11-27T08:16:00;20;18;
76421;PMS5003;65254;52.354;13.614;2022-11-27T08:20:00;21;19;
76421;PMS5003;65254;52.354;13.614;2022-11-27T08:24:00;24;21;
76421;PMS5003;65254;52.354;13.614;2022-11-27T08:28:00;37;32;
76421;PMS5003;65254;52.354;13.614;2022-11-27T08:32:00;46;40;
76421;PMS5003;65254;52.354;13.614;2022-11-27T08:36:00;47;41;
76421;PMS5003;65254;52.354;13.614;2022-11-27T08:40:00;34;30;
76421;PMS5003;65254;52.354;13.614;2022-11-27T08:44:00;22;20;
76421;PMS5003;65254;52.354;13.614;2022-11-27T08:48:00;21;19;
76421;PMS5003;65254;52.354;13.614;2022-11-27T08:52:00;23;21;
76421;PMS5003;65254;52.354;13.614;2022-11-27T08:56:04;23;21;
76421;PMS5003;65254;52.354;13.614;2022-11-27T09:00:00;21;19;
76421;PMS5003;65254;52.354;13.614;2022-11-27T09:04:00;20;18;
76421;PMS5003;65254;52.354;13.614;2022-11-27T09:08:00;20;18;
76421;PMS5003;65254;52.354;13.614;2022-11-27T09:12:00;18;16;
76421;PMS5003;65254;52.354;13.614;2022-11-27T09:16:00;17;15;
76421;PMS5003;65254;52.354;13.614;2022-11-27T09:20:01;16;14;
76421;PMS5003;65254;52.354;13.614;2022-11-27T09:24:00;15;14;
76421;PMS5003;65254;52.354;13.614;2022-11-27T09:28:00;14;13;
76421;PMS5003;65254;52.354;13.614;2022-11-27T09:32:00;15;14;
76421;PMS5003;65254;52.354;13.614;2022-11-27T09:36:03;15;14;
76421;PMS5003;65254;52.354;13.614;2022-11-27T09:40:00;13;12;
76421;PMS5003;65254;52.354;13.614;2022-11-27T09:44:03;14;13;
76421;PMS5003;65254;52.354;13.614;2022-11-27T09:48:03;13;12;
76421;PMS5003;65254;52.354;13.614;2022-11-27T09:52:02;14;13;
76421;PMS5003;65254;52.354;13.614;2022-11-27T09:56:03;13;12;
76421;PMS5003;65254;52.354;13.614;2022-11-27T10:00:03;13;12;
76421;PMS5003;65254;52.354;13.614;2022-11-27T10:04:00;13;12;
76421;PMS5003;65254;52.354;13.614;2022-11-27T10:08:20;14;13;
76421;PMS5003;65254;52.354;13.614;2022-11-27T10:12:05;14;13;
76421;PMS5003;65254;52.354;13.614;2022-11-27T10:16:04;14;13;
76421;PMS5003;65254;52.354;13.614;2022-11-27T10:20:10;13;12;
76421;PMS5003;65254;52.354;13.614;2022-11-27T10:24:06;12;11;
76421;PMS5003;65254;52.354;13.614;2022-11-27T10:28:09;12;11;
76421;PMS5003;65254;52.354;13.614;2022-11-27T10:32:04;10;9;
76421;PMS5003;65254;52.354;13.614;2022-11-27T10:36:00;11;10;
76421;PMS5003;65254;52.354;13.614;2022-11-27T10:40:02;11;10;
76421;PMS5003;65254;52.354;13.614;2022-11-27T10:44:17;11;10;
76421;PMS5003;65254;52.354;13.614;2022-11-27T10:48:00;12;11;
76421;PMS5003;65254;52.354;13.614;2022-11-27T10:52:00;12;11;
76421;PMS5003;65254;52.354;13.614;2022-11-27T10:56:17;12;11;
76421;PMS5003;65254;52.354;13.614;2022-11-27T11:00:07;15;14;
76421;PMS5003;65254;52.354;13.614;2022-11-27T11:04:04;11;10;
76421;PMS5003;65254;52.354;13.614;2022-11-27T11:08:03;10;9;
76421;PMS5003;65254;52.354;13.614;2022-11-27T11:12:08;11;10;
76421;PMS5003;65254;52.354;13.614;2022-11-27T11:16:03;10;9;
76421;PMS5003;65254;52.354;13.614;2022-11-27T11:20:13;12;11;
76421;PMS5003;65254;52.354;13.614;2022-11-27T11:24:01;11;10;
76421;PMS5003;65254;52.354;13.614;2022-11-27T11:28:00;10;9;
76421;PMS5003;65254;52.354;13.614;2022-11-27T11:32:05;10;9;
76421;PMS5003;65254;52.354;13.614;2022-11-27T11:36:07;11;10;
76421;PMS5003;65254;52.354;13.614;2022-11-27T11:40:03;11;10;
76421;PMS5003;65254;52.354;13.614;2022-11-27T11:44:01;11;10;
76421;PMS5003;65254;52.354;13.614;2022-11-27T11:48:02;11;10;
76421;PMS5003;65254;52.354;13.614;2022-11-27T11:52:10;12;11;
76421;PMS5003;65254;52.354;13.614;2022-11-27T11:56:05;11;10;
76421;PMS5003;65254;52.354;13.614;2022-11-27T12:00:04;11;10;
76421;PMS5003;65254;52.354;13.614;2022-11-27T12:04:09;10;9;
76421;PMS5003;65254;52.354;13.614;2022-11-27T12:08:14;10;9;
76421;PMS5003;65254;52.354;13.614;2022-11-27T12:12:05;9;8;
76421;PMS5003;65254;52.354;13.614;2022-11-27T12:16:05;10;9;
76421;PMS5003;65254;52.354;13.614;2022-11-27T12:20:13;10;9;
76421;PMS5003;65254;52.354;13.614;2022-11-27T12:24:10;10;9;
76421;PMS5003;65254;52.354;13.614;2022-11-27T12:28:14;10;9;
76421;PMS5003;65254;52.354;13.614;2022-11-27T12:32:11;10;9;
76421;PMS5003;65254;52.354;13.614;2022-11-27T12:36:07;11;10;
76421;PMS5003;65254;52.354;13.614;2022-11-27T12:40:13;10;9;
76421;PMS5003;65254;52.354;13.614;2022-11-27T12:44:00;9;8;
76421;PMS5003;65254;52.354;13.614;2022-11-27T12:48:04;9;8;
76421;PMS5003;65254;52.354;13.614;2022-11-27T12:52:04;9;8;
76421;PMS5003;65254;52.354;13.614;2022-11-27T12:56:05;9;8;
76421;PMS5003;65254;52.354;13.614;2022-11-27T13:00:04;10;9;
76421;PMS5003;65254;52.354;13.614;2022-11-27T13:04:08;9;8;
76421;PMS5003;65254;52.354;13.614;2022-11-27T13:08:03;8;7;
76421;PMS5003;65254;52.354;13.614;2022-11-27T13:12:00;8;7;
76421;PMS5003;65254;52.354;13.614;2022-11-27T13:16:04;7;7;
76421;PMS5003;65254;52.354;13.614;2022-11-27T13:20:01;7;7;
76421;PMS5003;65254;52.354;13.614;2022-11-27T13:24:01;8;7;
76421;PMS5003;65254;52.354;13.614;2022-11-27T13:28:01;7;7;
76421;PMS5003;65254;52.354;13.614;2022-11-27T13:32:02;7;7;
76421;PMS5003;65254;52.354;13.614;2022-11-27T13:36:00;7;7;
76421;PMS5003;65254;52.354;13.614;2022-11-27T13:40:03;7;7;
76421;PMS5003;65254;52.354;13.614;2022-11-27T13:44:00;9;8;
76421;PMS5003;65254;52.354;13.614;2022-11-27T13:48:02;10;9;
76421;PMS5003;65254;52.354;13.614;2022-11-27T13:52:05;10;9;
76421;PMS5003;65254;52.354;13.614;2022-11-27T13:56:00;10;9;
76421;PMS5003;65254;52.354;13.614;2022-11-27T14:00:02;9;8;
76421;PMS5003;65254;52.354;13.614;2022-11-27T14:04:05;9;8;
76421;PMS5003;65254;52.354;13.614;2022-11-27T14:08:00;9;8;
76421;PMS5003;65254;52.354;13.614;2022-11-27T14:12:01;9;8;
76421;PMS5003;65254;52.354;13.614;2022-11-27T14:16:01;9;8;
76421;PMS5003;65254;52.354;13.614;2022-11-27T14:20:05;10;9;
76421;PMS5003;65254;52.354;13.614;2022-11-27T14:24:00;9;8;
76421;PMS5003;65254;52.354;13.614;2022-11-27T14:28:08;10;9;
76421;PMS5003;65254;52.354;13.614;2022-11-27T14:32:01;9;8;
76421;PMS5003;65254;52.354;13.614;2022-11-27T14:36:02;10;9;
76421;PMS5003;65254;52.354;13.614;2022-11-27T14:40:11;10;9;
76421;PMS5003;65254;52.354;13.614;2022-11-27T14:44:00;11;10;
76421;PMS5003;65254;52.354;13.614;2022-11-27T14:48:00;13;12;
76421;PMS5003;65254;52.354;13.614;2022-11-27T14:52:02;12;11;
76421;PMS5003;65254;52.354;13.614;2022-11-27T14:56:00;12;11;
76421;PMS5003;65254;52.354;13.614;2022-11-27T15:00:14;11;10;
76421;PMS5003;65254;52.354;13.614;2022-11-27T15:04:02;12;11;
76421;PMS5003;65254;52.354;13.614;2022-11-27T15:08:01;15;14;
76421;PMS5003;65254;52.354;13.614;2022-11-27T15:12:07;14;13;
76421;PMS5003;65254;52.354;13.614;2022-11-27T15:16:03;17;15;
76421;PMS5003;65254;52.354;13.614;2022-11-27T15:20:02;14;13;
76421;PMS5003;65254;52.354;13.614;2022-11-27T15:24:00;13;12;
76421;PMS5003;65254;52.354;13.614;2022-11-27T15:28:00;12;11;
76421;PMS5003;65254;52.354;13.614;2022-11-27T15:32:00;12;11;
76421;PMS5003;65254;52.354;13.614;2022-11-27T15:36:13;12;11;
76421;PMS5003;65254;52.354;13.614;2022-11-27T15:40:00;11;10;
76421;PMS5003;65254;52.354;13.614;2022-11-27T15:44:00;12;11;
76421;PMS5003;65254;52.354;13.614;2022-11-27T15:48:00;14;13;
76421;PMS5003;65254;52.354;13.614;2022-11-27T15:52:00;15;14;
76421;PMS5003;65254;52.354;13.614;2022-11-27T15:56:00;14;13;
76421;PMS5003;65254;52.354;13.614;2022-11-27T16:00:00;13;12;
76421;PMS5003;65254;52.354;13.614;2022-11-27T16:04:00;11;10;
76421;PMS5003;65254;52.354;13.614;2022-11-27T16:08:00;13;12;
76421;PMS5003;65254;52.354;13.614;2022-11-27T16:12:00;10;9;
76421;PMS5003;65254;52.354;13.614;2022-11-27T16:16:01;12;11;
76421;PMS5003;65254;52.354;13.614;2022-11-27T16:20:00;14;13;
76421;PMS5003;65254;52.354;13.614;2022-11-27T16:24:03;14;13;
76421;PMS5003;65254;52.354;13.614;2022-11-27T16:28:04;12;11;
76421;PMS5003;65254;52.354;13.614;2022-11-27T16:32:00;13;12;
76421;PMS5003;65254;52.354;13.614;2022-11-27T16:36:04;12;11;
76421;PMS5003;65254;52.354;13.614;2022-11-27T16:40:00;14;13;
76421;PMS5003;65254;52.354;13.614;2022-11-27T16:44:00;13;12;
76421;PMS5003;65254;52.354;13.614;2022-11-27T16:48:00;13;12;
76421;PMS5003;65254;52.354;13.614;2022-11-27T16:52:00;15;14;
76421;PMS5003;65254;52.354;13.614;2022-11-27T16:56:00;15;14;
76421;PMS5003;65254;52.354;13.614;2022-11-27T17:00:00;17;15;
76421;PMS5003;65254;52.354;13.614;2022-11-27T17:04:01;13;12;
76421;PMS5003;65254;52.354;13.614;2022-11-27T17:08:00;12;11;
76421;PMS5003;65254;52.354;13.614;2022-11-27T17:12:00;12;11;
76421;PMS5003;65254;52.354;13.614;2022-11-27T17:16:00;12;11;
76421;PMS5003;65254;52.354;13.614;2022-11-27T17:20:00;13;12;
76421;PMS5003;65254;52.354;13.614;2022-11-27T17:24:02;12;11;
76421;PMS5003;65254;52.354;13.614;2022-11-27T17:28:00;11;10;
76421;PMS5003;65254;52.354;13.614;2022-11-27T17:32:00;11;10;
76421;PMS5003;65254;52.354;13.614;2022-11-27T17:36:00;12;11;
76421;PMS5003;65254;52.354;13.614;2022-11-27T17:40:00;12;11;
76421;PMS5003;65254;52.354;13.614;2022-11-27T17:44:01;11;10;
76421;PMS5003;65254;52.354;13.614;2022-11-27T17:48:00;10;9;
76421;PMS5003;65254;52.354;13.614;2022-11-27T17:52:06;11;10;
76421;PMS5003;65254;52.354;13.614;2022-11-27T17:56:02;11;10;
76421;PMS5003;65254;52.354;13.614;2022-11-27T18:00:00;12;11;
76421;PMS5003;65254;52.354;13.614;2022-11-27T18:04:00;12;11;
76421;PMS5003;65254;52.354;13.614;2022-11-27T18:08:00;12;11;
76421;PMS5003;65254;52.354;13.614;2022-11-27T18:12:00;11;10;
76421;PMS5003;65254;52.354;13.614;2022-11-27T18:16:05;13;12;
76421;PMS5003;65254;52.354;13.614;2022-11-27T18:20:00;13;12;
76421;PMS5003;65254;52.354;13.614;2022-11-27T18:24:10;16;14;
76421;PMS5003;65254;52.354;13.614;2022-11-27T18:28:00;17;15;
76421;PMS5003;65254;52.354;13.614;2022-11-27T18:32:00;15;14;
76421;PMS5003;65254;52.354;13.614;2022-11-27T18:36:00;15;13;
76421;PMS5003;65254;52.354;13.614;2022-11-27T18:40:00;12;11;
76421;PMS5003;65254;52.354;13.614;2022-11-27T18:44:00;13;12;
76421;PMS5003;65254;52.354;13.614;2022-11-27T18:48:00;13;12;
76421;PMS5003;65254;52.354;13.614;2022-11-27T18:52:00;12;11;
76421;PMS5003;65254;52.354;13.614;2022-11-27T18:56:02;11;10;
76421;PMS5003;65254;52.354;13.614;2022-11-27T19:00:00;12;11;
76421;PMS5003;65254;52.354;13.614;2022-11-27T19:04:01;12;11;
76421;PMS5003;65254;52.354;13.614;2022-11-27T19:08:00;11;10;
76421;PMS5003;65254;52.354;13.614;2022-11-27T19:12:00;12;11;
76421;PMS5003;65254;52.354;13.614;2022-11-27T19:16:04;12;11;
76421;PMS5003;65254;52.354;13.614;2022-11-27T19:20:00;13;12;
76421;PMS5003;65254;52.354;13.614;2022-11-27T19:24:02;12;11;
76421;PMS5003;65254;52.354;13.614;2022-11-27T19:28:00;13;12;
76421;PMS5003;65254;52.354;13.614;2022-11-27T19:32:00;13;12;
76421;PMS5003;65254;52.354;13.614;2022-11-27T19:36:01;15;14;
76421;PMS5003;65254;52.354;13.614;2022-11-27T19:40:00;14;13;
76421;PMS5003;65254;52.354;13.614;2022-11-27T19:44:01;17;15;
76421;PMS5003;65254;52.354;13.614;2022-11-27T19:48:00;19;17;
76421;PMS5003;65254;52.354;13.614;2022-11-27T19:52:00;18;16;
76421;PMS5003;65254;52.354;13.614;2022-11-27T19:56:00;18;16;
76421;PMS5003;65254;52.354;13.614;2022-11-27T20:00:00;18;16;
76421;PMS5003;65254;52.354;13.614;2022-11-27T20:04:00;17;15;
76421;PMS5003;65254;52.354;13.614;2022-11-27T20:08:00;15;14;
76421;PMS5003;65254;52.354;13.614;2022-11-27T20:12:00;15;14;
76421;PMS5003;65254;52.354;13.614;2022-11-27T20:16:02;17;15;
76421;PMS5003;65254;52.354;13.614;2022-11-27T20:20:00;18;16;
76421;PMS5003;65254;52.354;13.614;2022-11-27T20:24:00;17;15;
76421;PMS5003;65254;52.354;13.614;2022-11-27T20:28:00;15;14;
76421;PMS5003;65254;52.354;13.614;2022-11-27T20:32:00;13;12;
76421;PMS5003;65254;52.354;13.614;2022-11-27T20:36:00;14;13;
76421;PMS5003;65254;52.354;13.614;2022-11-27T20:40:00;14;13;
76421;PMS5003;65254;52.354;13.614;2022-11-27T20:44:01;13;12;
76421;PMS5003;65254;52.354;13.614;2022-11-27T20:48:00;14;13;
76421;PMS5003;65254;52.354;13.614;2022-11-27T20:52:00;12;11;
76421;PMS5003;65254;52.354;13.614;2022-11-27T20:56:01;12;11;
76421;PMS5003;65254;52.354;13.614;2022-11-27T21:00:00;12;11;
76421;PMS5003;65254;52.354;13.614;2022-11-27T21:04:02;14;13;
76421;PMS5003;65254;52.354;13.614;2022-11-27T21:08:00;13;12;
76421;PMS5003;65254;52.354;13.614;2022-11-27T21:12:00;13;12;
76421;PMS5003;65254;52.354;13.614;2022-11-27T21:16:00;13;12;
76421;PMS5003;65254;52.354;13.614;2022-11-27T21:20:00;13;12;
76421;PMS5003;65254;52.354;13.614;2022-11-27T21:24:00;12;11;
76421;PMS5003;65254;52.354;13.614;2022-11-27T21:28:00;12;11;
76421;PMS5003;65254;52.354;13.614;2022-11-27T21:32:00;12;11;
76421;PMS5003;65254;52.354;13.614;2022-11-27T21:36:00;12;11;
76421;PMS5003;65254;52.354;13.614;2022-11-27T21:40:00;13;12;
76421;PMS5003;65254;52.354;13.614;2022-11-27T21:44:02;12;11;
76421;PMS5003;65254;52.354;13.614;2022-11-27T21:48:00;12;11;
76421;PMS5003;65254;52.354;13.614;2022-11-27T21:52:00;13;12;
76421;PMS5003;65254;52.354;13.614;2022-11-27T21:56:02;12;11;
76421;PMS5003;65254;52.354;13.614;2022-11-27T22:00:00;12;11;
76421;PMS5003;65254;52.354;13.614;2022-11-27T22:04:00;12;11;
76421;PMS5003;65254;52.354;13.614;2022-11-27T22:08:00;13;12;
76421;PMS5003;65254;52.354;13.614;2022-11-27T22:12:00;13;12;
76421;PMS5003;65254;52.354;13.614;2022-11-27T22:16:00;13;12;
76421;PMS5003;65254;52.354;13.614;2022-11-27T22:20:00;12;11;
76421;PMS5003;65254;52.354;13.614;2022-11-27T22:24:00;13;12;
76421;PMS5003;65254;52.354;13.614;2022-11-27T22:28:00;13;12;
76421;PMS5003;65254;52.354;13.614;2022-11-27T22:32:00;13;12;
76421;PMS5003;65254;52.354;13.614;2022-11-27T22:36:08;13;12;
76421;PMS5003;65254;52.354;13.614;2022-11-27T22:40:00;13;12;
76421;PMS5003;65254;52.354;13.614;2022-11-27T22:44:04;13;12;
76421;PMS5003;65254;52.354;13.614;2022-11-27T22:48:00;12;11;
76421;PMS5003;65254;52.354;13.614;2022-11-27T22:52:00;13;12;
76421;PMS5003;65254;52.354;13.614;2022-11-27T22:56:04;12;11;
76421;PMS5003;65254;52.354;13.614;2022-11-27T23:00:00;12;11;
76421;PMS5003;65254;52.354;13.614;2022-11-27T23:04:00;12;11;
76421;PMS5003;65254;52.354;13.614;2022-11-27T23:08:00;12;11;
76421;PMS5003;65254;52.354;13.614;2022-11-27T23:12:00;13;12;
76421;PMS5003;65254;52.354;13.614;2022-11-27T23:16:00;12;11;
76421;PMS5003;65254;52.354;13.614;2022-11-27T23:20:00;12;11;
76421;PMS5003;65254;52.354;13.614;2022-11-27T23:24:00;12;11;
76421;PMS5003;65254;52.354;13.614;2022-11-27T23:28:00;13;12;
76421;PMS5003;65254;52.354;13.614;2022-11-27T23:32:00;13;12;
76421;PMS5003;65254;52.354;13.614;2022-11-27T23:36:01;13;12;
76421;PMS5003;65254;52.354;13.614;2022-11-27T23:40:00;13;12;
76421;PMS5003;65254;52.354;13.614;2022-11-27T23:44:00;13;12;
76421;PMS5003;65254;52.354;13.614;2022-11-27T23:48:00;13;12;
76421;PMS5003;65254;52.354;13.614;2022-11-27T23:52:00;14;13;
76421;PMS5003;65254;52.354;13.614;2022-11-27T23:56:01;13;12;
